TXKF/BDA METAR and TAF weather

Enter ICAO airport designator
Station Type Date Time Source
TXKF METAR 2021/07/24 20:47 UTC NOAA

TXKF 242047Z 27020KT 6000 VCTS -SHRA SCT010CB BKN020 OVC070 24/22 Q1019 RMK TS OHD SW-NE


Station Type Date Time Source
TXKF Decoded METAR 2021/07/24 20:47 UTC NOAA

Bermuda, Bermuda (TXKF) 32-22N 064-41W
Jul 24, 2021 - 04:47 PM EDT / 2021.07.24 2047 UTC
Wind: from the W (270 degrees) at 23 MPH (20 KT):0
Visibility: 3 mile(s):0
Sky conditions: overcast
Weather: thunder in the vicinity; light rain showers; Cumulonimbus clouds observed
Temperature: 75 F (24 C)
Dew Point: 71 F (22 C)
Relative Humidity: 88%
Pressure (altimeter): 30.09 in. Hg (1019 hPa)
ob: TXKF 242047Z 27020KT 6000 VCTS -SHRA SCT010CB BKN020 OVC070 24/22 Q1019 RMK TS OHD SW-NE
cycle: 21

Station Type Date Time Source
TXKF TAF 2021/07/24 20:49 UTC NOAA

TAF
AMD TXKF 242035Z 2420/2518 23015KT 9999 VCSH SCT015 BKN250 PROB40
TEMPO 2420/2509 25020KT 3200 SHRA FEW008 BKN012 PROB30
TEMPO 2420/2509 VRB25G35KT 1600 +TSRA BKN008CB
BECMG 2506/2509 30010KT 9999 NSW FEW020 SCT300

Example: see airport list